sensor_id;sensor_type;location;lat;lon;timestamp;P1;durP1;ratioP1;P2;durP2;ratioP2
72493;SDS011;60520;49.182;-0.348;2023-04-06T00:00:33;3.40;;;2.20;;
72493;SDS011;60520;49.182;-0.348;2023-04-06T00:03:00;2.33;;;1.70;;
72493;SDS011;60520;49.182;-0.348;2023-04-06T00:05:27;2.75;;;1.80;;
72493;SDS011;60520;49.182;-0.348;2023-04-06T00:07:55;2.20;;;1.80;;
72493;SDS011;60520;49.182;-0.348;2023-04-06T00:10:22;3.00;;;1.83;;
72493;SDS011;60520;49.182;-0.348;2023-04-06T00:12:51;2.58;;;1.90;;
72493;SDS011;60520;49.182;-0.348;2023-04-06T00:15:19;3.22;;;1.73;;
72493;SDS011;60520;49.182;-0.348;2023-04-06T00:17:46;2.63;;;1.75;;
72493;SDS011;60520;49.182;-0.348;2023-04-06T00:20:13;3.58;;;1.77;;
72493;SDS011;60520;49.182;-0.348;2023-04-06T00:22:40;2.80;;;1.88;;
72493;SDS011;60520;49.182;-0.348;2023-04-06T00:25:08;2.85;;;1.77;;
72493;SDS011;60520;49.182;-0.348;2023-04-06T00:27:36;3.55;;;2.00;;
72493;SDS011;60520;49.182;-0.348;2023-04-06T00:30:05;2.38;;;1.92;;
72493;SDS011;60520;49.182;-0.348;2023-04-06T00:32:32;4.38;;;2.10;;
72493;SDS011;60520;49.182;-0.348;2023-04-06T00:34:59;3.90;;;2.38;;
72493;SDS011;60520;49.182;-0.348;2023-04-06T00:37:26;2.53;;;1.80;;
72493;SDS011;60520;49.182;-0.348;2023-04-06T00:39:54;3.50;;;2.03;;
72493;SDS011;60520;49.182;-0.348;2023-04-06T00:42:21;2.38;;;1.70;;
72493;SDS011;60520;49.182;-0.348;2023-04-06T00:44:51;3.22;;;1.80;;
72493;SDS011;60520;49.182;-0.348;2023-04-06T00:47:20;3.33;;;1.83;;
72493;SDS011;60520;49.182;-0.348;2023-04-06T00:49:47;2.53;;;1.80;;
72493;SDS011;60520;49.182;-0.348;2023-04-06T00:52:14;2.67;;;1.73;;
72493;SDS011;60520;49.182;-0.348;2023-04-06T00:54:42;2.38;;;1.63;;
72493;SDS011;60520;49.182;-0.348;2023-04-06T00:57:09;4.10;;;1.90;;
72493;SDS011;60520;49.182;-0.348;2023-04-06T00:59:37;3.10;;;1.83;;
72493;SDS011;60520;49.182;-0.348;2023-04-06T01:02:04;2.80;;;1.70;;
72493;SDS011;60520;49.182;-0.348;2023-04-06T01:04:32;3.03;;;1.83;;
72493;SDS011;60520;49.182;-0.348;2023-04-06T01:07:00;3.17;;;1.60;;
72493;SDS011;60520;49.182;-0.348;2023-04-06T01:09:27;2.63;;;1.80;;
72493;SDS011;60520;49.182;-0.348;2023-04-06T01:11:55;2.00;;;1.42;;
72493;SDS011;60520;49.182;-0.348;2023-04-06T01:14:22;3.53;;;1.67;;
72493;SDS011;60520;49.182;-0.348;2023-04-06T01:16:49;2.47;;;1.73;;
72493;SDS011;60520;49.182;-0.348;2023-04-06T01:19:16;3.97;;;1.70;;
72493;SDS011;60520;49.182;-0.348;2023-04-06T01:21:45;2.88;;;1.88;;
72493;SDS011;60520;49.182;-0.348;2023-04-06T01:24:15;2.55;;;1.70;;
72493;SDS011;60520;49.182;-0.348;2023-04-06T01:26:43;2.58;;;1.80;;
72493;SDS011;60520;49.182;-0.348;2023-04-06T01:29:10;2.85;;;1.80;;
72493;SDS011;60520;49.182;-0.348;2023-04-06T01:31:37;2.42;;;1.50;;
72493;SDS011;60520;49.182;-0.348;2023-04-06T01:34:05;2.35;;;1.60;;
72493;SDS011;60520;49.182;-0.348;2023-04-06T01:36:32;2.10;;;1.60;;
72493;SDS011;60520;49.182;-0.348;2023-04-06T01:38:59;2.13;;;1.67;;
72493;SDS011;60520;49.182;-0.348;2023-04-06T01:41:28;3.90;;;1.80;;
72493;SDS011;60520;49.182;-0.348;2023-04-06T01:43:55;2.55;;;1.50;;
72493;SDS011;60520;49.182;-0.348;2023-04-06T01:46:22;3.38;;;1.85;;
72493;SDS011;60520;49.182;-0.348;2023-04-06T01:48:49;2.35;;;1.70;;
72493;SDS011;60520;49.182;-0.348;2023-04-06T01:51:17;2.22;;;1.70;;
72493;SDS011;60520;49.182;-0.348;2023-04-06T01:53:44;1.98;;;1.60;;
72493;SDS011;60520;49.182;-0.348;2023-04-06T01:56:11;2.53;;;1.83;;
72493;SDS011;60520;49.182;-0.348;2023-04-06T01:58:39;2.78;;;1.63;;
72493;SDS011;60520;49.182;-0.348;2023-04-06T02:01:06;3.33;;;1.73;;
72493;SDS011;60520;49.182;-0.348;2023-04-06T02:03:34;2.00;;;1.45;;
72493;SDS011;60520;49.182;-0.348;2023-04-06T02:06:01;2.50;;;1.60;;
72493;SDS011;60520;49.182;-0.348;2023-04-06T02:08:28;2.95;;;1.73;;
72493;SDS011;60520;49.182;-0.348;2023-04-06T02:10:55;2.72;;;1.70;;
72493;SDS011;60520;49.182;-0.348;2023-04-06T02:13:23;1.80;;;1.40;;
72493;SDS011;60520;49.182;-0.348;2023-04-06T02:15:51;3.72;;;1.73;;
72493;SDS011;60520;49.182;-0.348;2023-04-06T02:18:18;2.55;;;1.58;;
72493;SDS011;60520;49.182;-0.348;2023-04-06T02:20:45;2.40;;;1.50;;
72493;SDS011;60520;49.182;-0.348;2023-04-06T02:23:12;2.95;;;1.67;;
72493;SDS011;60520;49.182;-0.348;2023-04-06T02:25:40;2.22;;;1.50;;
72493;SDS011;60520;49.182;-0.348;2023-04-06T02:28:07;2.25;;;1.48;;
72493;SDS011;60520;49.182;-0.348;2023-04-06T02:30:34;2.22;;;1.60;;
72493;SDS011;60520;49.182;-0.348;2023-04-06T02:33:02;2.30;;;1.55;;
72493;SDS011;60520;49.182;-0.348;2023-04-06T02:35:30;3.65;;;1.60;;
72493;SDS011;60520;49.182;-0.348;2023-04-06T02:37:57;3.95;;;1.40;;
72493;SDS011;60520;49.182;-0.348;2023-04-06T02:40:24;1.95;;;1.30;;
72493;SDS011;60520;49.182;-0.348;2023-04-06T02:42:51;1.77;;;1.48;;
72493;SDS011;60520;49.182;-0.348;2023-04-06T02:45:19;2.65;;;1.48;;
72493;SDS011;60520;49.182;-0.348;2023-04-06T02:47:46;2.40;;;1.55;;
72493;SDS011;60520;49.182;-0.348;2023-04-06T02:50:14;2.10;;;1.50;;
72493;SDS011;60520;49.182;-0.348;2023-04-06T02:52:42;1.92;;;1.42;;
72493;SDS011;60520;49.182;-0.348;2023-04-06T02:55:09;1.80;;;1.50;;
72493;SDS011;60520;49.182;-0.348;2023-04-06T02:57:36;2.03;;;1.30;;
72493;SDS011;60520;49.182;-0.348;2023-04-06T03:00:03;3.08;;;1.50;;
72493;SDS011;60520;49.182;-0.348;2023-04-06T03:02:31;2.28;;;1.50;;
72493;SDS011;60520;49.182;-0.348;2023-04-06T03:04:58;1.77;;;1.40;;
72493;SDS011;60520;49.182;-0.348;2023-04-06T03:07:27;1.98;;;1.20;;
72493;SDS011;60520;49.182;-0.348;2023-04-06T03:09:54;2.67;;;1.45;;
72493;SDS011;60520;49.182;-0.348;2023-04-06T03:12:21;2.15;;;1.30;;
72493;SDS011;60520;49.182;-0.348;2023-04-06T03:14:48;2.50;;;1.58;;
72493;SDS011;60520;49.182;-0.348;2023-04-06T03:17:16;1.88;;;1.30;;
72493;SDS011;60520;49.182;-0.348;2023-04-06T03:19:43;1.63;;;1.20;;
72493;SDS011;60520;49.182;-0.348;2023-04-06T03:22:10;2.53;;;1.20;;
72493;SDS011;60520;49.182;-0.348;2023-04-06T03:24:38;1.55;;;1.17;;
72493;SDS011;60520;49.182;-0.348;2023-04-06T03:27:05;2.50;;;1.60;;
72493;SDS011;60520;49.182;-0.348;2023-04-06T03:29:33;2.03;;;1.42;;
72493;SDS011;60520;49.182;-0.348;2023-04-06T03:32:00;1.73;;;1.35;;
72493;SDS011;60520;49.182;-0.348;2023-04-06T03:34:27;2.03;;;1.30;;
72493;SDS011;60520;49.182;-0.348;2023-04-06T03:36:55;2.10;;;1.50;;
72493;SDS011;60520;49.182;-0.348;2023-04-06T03:39:22;2.30;;;1.30;;
72493;SDS011;60520;49.182;-0.348;2023-04-06T03:41:50;1.63;;;1.20;;
72493;SDS011;60520;49.182;-0.348;2023-04-06T03:44:17;4.10;;;1.85;;
72493;SDS011;60520;49.182;-0.348;2023-04-06T03:46:45;1.63;;;1.20;;
72493;SDS011;60520;49.182;-0.348;2023-04-06T03:49:12;1.75;;;1.20;;
72493;SDS011;60520;49.182;-0.348;2023-04-06T03:51:39;2.90;;;1.55;;
72493;SDS011;60520;49.182;-0.348;2023-04-06T03:54:06;2.08;;;1.15;;
72493;SDS011;60520;49.182;-0.348;2023-04-06T03:56:33;2.05;;;1.30;;
72493;SDS011;60520;49.182;-0.348;2023-04-06T03:59:02;2.20;;;1.10;;
72493;SDS011;60520;49.182;-0.348;2023-04-06T04:01:29;1.45;;;1.27;;
72493;SDS011;60520;49.182;-0.348;2023-04-06T04:03:56;1.70;;;1.42;;
72493;SDS011;60520;49.182;-0.348;2023-04-06T04:06:23;1.92;;;1.48;;
72493;SDS011;60520;49.182;-0.348;2023-04-06T04:08:50;1.70;;;1.35;;
72493;SDS011;60520;49.182;-0.348;2023-04-06T04:11:18;1.65;;;1.30;;
72493;SDS011;60520;49.182;-0.348;2023-04-06T04:13:45;1.35;;;1.20;;
72493;SDS011;60520;49.182;-0.348;2023-04-06T04:16:13;1.63;;;1.20;;
72493;SDS011;60520;49.182;-0.348;2023-04-06T04:18:40;1.77;;;1.10;;
72493;SDS011;60520;49.182;-0.348;2023-04-06T04:21:08;1.35;;;1.17;;
72493;SDS011;60520;49.182;-0.348;2023-04-06T04:23:35;1.70;;;1.33;;
72493;SDS011;60520;49.182;-0.348;2023-04-06T04:26:02;1.63;;;1.20;;
72493;SDS011;60520;49.182;-0.348;2023-04-06T04:28:30;1.38;;;1.10;;
72493;SDS011;60520;49.182;-0.348;2023-04-06T04:30:57;2.03;;;1.20;;
72493;SDS011;60520;49.182;-0.348;2023-04-06T04:33:25;1.25;;;1.10;;
72493;SDS011;60520;49.182;-0.348;2023-04-06T04:35:52;2.58;;;1.30;;
72493;SDS011;60520;49.182;-0.348;2023-04-06T04:38:20;2.40;;;1.40;;
72493;SDS011;60520;49.182;-0.348;2023-04-06T04:40:47;2.10;;;1.40;;
72493;SDS011;60520;49.182;-0.348;2023-04-06T04:43:14;1.58;;;1.23;;
72493;SDS011;60520;49.182;-0.348;2023-04-06T04:45:41;2.33;;;1.20;;
72493;SDS011;60520;49.182;-0.348;2023-04-06T04:48:08;1.67;;;1.13;;
72493;SDS011;60520;49.182;-0.348;2023-04-06T04:50:37;1.38;;;1.20;;
72493;SDS011;60520;49.182;-0.348;2023-04-06T04:53:04;1.80;;;1.20;;
72493;SDS011;60520;49.182;-0.348;2023-04-06T04:55:31;2.08;;;1.25;;
72493;SDS011;60520;49.182;-0.348;2023-04-06T04:57:58;2.58;;;1.40;;
72493;SDS011;60520;49.182;-0.348;2023-04-06T05:00:27;2.00;;;1.38;;
72493;SDS011;60520;49.182;-0.348;2023-04-06T05:02:54;1.50;;;1.20;;
72493;SDS011;60520;49.182;-0.348;2023-04-06T05:05:21;2.28;;;1.40;;
72493;SDS011;60520;49.182;-0.348;2023-04-06T05:07:50;1.55;;;0.95;;
72493;SDS011;60520;49.182;-0.348;2023-04-06T05:10:17;2.20;;;1.10;;
72493;SDS011;60520;49.182;-0.348;2023-04-06T05:12:44;1.55;;;1.23;;
72493;SDS011;60520;49.182;-0.348;2023-04-06T05:15:11;1.70;;;1.08;;
72493;SDS011;60520;49.182;-0.348;2023-04-06T05:17:39;1.30;;;1.20;;
72493;SDS011;60520;49.182;-0.348;2023-04-06T05:20:06;1.58;;;1.25;;
72493;SDS011;60520;49.182;-0.348;2023-04-06T05:22:33;1.42;;;1.10;;
72493;SDS011;60520;49.182;-0.348;2023-04-06T05:25:02;1.05;;;0.95;;
72493;SDS011;60520;49.182;-0.348;2023-04-06T05:27:29;1.67;;;1.27;;
72493;SDS011;60520;49.182;-0.348;2023-04-06T05:29:56;1.65;;;1.20;;
72493;SDS011;60520;49.182;-0.348;2023-04-06T05:32:24;1.67;;;1.00;;
72493;SDS011;60520;49.182;-0.348;2023-04-06T05:34:51;1.08;;;0.90;;
72493;SDS011;60520;49.182;-0.348;2023-04-06T05:37:18;1.80;;;1.20;;
72493;SDS011;60520;49.182;-0.348;2023-04-06T05:39:45;1.40;;;1.00;;
72493;SDS011;60520;49.182;-0.348;2023-04-06T05:42:14;1.50;;;1.20;;
72493;SDS011;60520;49.182;-0.348;2023-04-06T05:44:41;1.08;;;0.93;;
72493;SDS011;60520;49.182;-0.348;2023-04-06T05:47:08;1.30;;;1.00;;
72493;SDS011;60520;49.182;-0.348;2023-04-06T05:49:35;1.50;;;1.10;;
72493;SDS011;60520;49.182;-0.348;2023-04-06T05:52:03;1.50;;;1.15;;
72493;SDS011;60520;49.182;-0.348;2023-04-06T05:54:30;1.55;;;1.10;;
72493;SDS011;60520;49.182;-0.348;2023-04-06T05:56:57;1.48;;;0.93;;
72493;SDS011;60520;49.182;-0.348;2023-04-06T05:59:26;1.13;;;0.82;;
72493;SDS011;60520;49.182;-0.348;2023-04-06T06:01:56;1.00;;;0.90;;
72493;SDS011;60520;49.182;-0.348;2023-04-06T06:04:23;1.10;;;0.93;;
72493;SDS011;60520;49.182;-0.348;2023-04-06T06:06:51;1.27;;;1.02;;
72493;SDS011;60520;49.182;-0.348;2023-04-06T06:09:18;1.77;;;1.10;;
72493;SDS011;60520;49.182;-0.348;2023-04-06T06:11:45;1.55;;;1.10;;
72493;SDS011;60520;49.182;-0.348;2023-04-06T06:14:12;1.45;;;1.08;;
72493;SDS011;60520;49.182;-0.348;2023-04-06T06:16:41;1.30;;;1.00;;
72493;SDS011;60520;49.182;-0.348;2023-04-06T06:19:08;1.13;;;1.00;;
72493;SDS011;60520;49.182;-0.348;2023-04-06T06:21:35;1.35;;;0.95;;
72493;SDS011;60520;49.182;-0.348;2023-04-06T06:24:03;1.90;;;1.10;;
72493;SDS011;60520;49.182;-0.348;2023-04-06T06:26:30;1.58;;;1.13;;
72493;SDS011;60520;49.182;-0.348;2023-04-06T06:28:57;1.10;;;0.82;;
72493;SDS011;60520;49.182;-0.348;2023-04-06T06:31:24;0.98;;;0.88;;
72493;SDS011;60520;49.182;-0.348;2023-04-06T06:33:53;1.00;;;0.90;;
72493;SDS011;60520;49.182;-0.348;2023-04-06T06:36:20;1.23;;;0.93;;
72493;SDS011;60520;49.182;-0.348;2023-04-06T06:38:47;1.20;;;0.90;;
72493;SDS011;60520;49.182;-0.348;2023-04-06T06:41:15;1.00;;;0.80;;
72493;SDS011;60520;49.182;-0.348;2023-04-06T06:43:42;1.48;;;1.00;;
72493;SDS011;60520;49.182;-0.348;2023-04-06T06:46:09;1.17;;;0.93;;
72493;SDS011;60520;49.182;-0.348;2023-04-06T06:48:36;1.58;;;0.90;;
72493;SDS011;60520;49.182;-0.348;2023-04-06T06:51:05;1.23;;;0.90;;
72493;SDS011;60520;49.182;-0.348;2023-04-06T06:53:32;1.40;;;1.00;;
72493;SDS011;60520;49.182;-0.348;2023-04-06T06:55:59;1.42;;;0.90;;
72493;SDS011;60520;49.182;-0.348;2023-04-06T06:58:26;1.00;;;0.90;;
72493;SDS011;60520;49.182;-0.348;2023-04-06T07:00:55;1.50;;;0.90;;
72493;SDS011;60520;49.182;-0.348;2023-04-06T07:03:23;0.90;;;0.70;;
72493;SDS011;60520;49.182;-0.348;2023-04-06T07:05:50;1.42;;;1.10;;
72493;SDS011;60520;49.182;-0.348;2023-04-06T07:08:20;1.10;;;0.90;;
72493;SDS011;60520;49.182;-0.348;2023-04-06T07:10:47;1.30;;;0.80;;
72493;SDS011;60520;49.182;-0.348;2023-04-06T07:13:15;1.60;;;0.80;;
72493;SDS011;60520;49.182;-0.348;2023-04-06T07:15:46;2.00;;;0.90;;
72493;SDS011;60520;49.182;-0.348;2023-04-06T07:18:13;1.70;;;1.08;;
72493;SDS011;60520;49.182;-0.348;2023-04-06T07:20:41;1.52;;;1.00;;
72493;SDS011;60520;49.182;-0.348;2023-04-06T07:23:08;1.45;;;0.88;;
72493;SDS011;60520;49.182;-0.348;2023-04-06T07:25:36;2.15;;;0.90;;
72493;SDS011;60520;49.182;-0.348;2023-04-06T07:28:04;1.08;;;0.88;;
72493;SDS011;60520;49.182;-0.348;2023-04-06T07:30:31;2.53;;;0.93;;
72493;SDS011;60520;49.182;-0.348;2023-04-06T07:32:58;4.32;;;0.90;;
72493;SDS011;60520;49.182;-0.348;2023-04-06T07:35:26;1.13;;;0.70;;
72493;SDS011;60520;49.182;-0.348;2023-04-06T07:37:55;3.30;;;1.08;;
72493;SDS011;60520;49.182;-0.348;2023-04-06T07:40:22;1.20;;;0.70;;
72493;SDS011;60520;49.182;-0.348;2023-04-06T07:42:52;1.80;;;0.95;;
72493;SDS011;60520;49.182;-0.348;2023-04-06T07:45:20;2.15;;;0.95;;
72493;SDS011;60520;49.182;-0.348;2023-04-06T07:47:47;1.73;;;0.98;;
72493;SDS011;60520;49.182;-0.348;2023-04-06T07:50:19;2.15;;;0.90;;
72493;SDS011;60520;49.182;-0.348;2023-04-06T07:52:46;1.75;;;0.90;;
72493;SDS011;60520;49.182;-0.348;2023-04-06T07:55:14;2.55;;;1.00;;
72493;SDS011;60520;49.182;-0.348;2023-04-06T07:58:08;1.35;;;0.80;;
72493;SDS011;60520;49.182;-0.348;2023-04-06T08:00:35;2.97;;;0.90;;
72493;SDS011;60520;49.182;-0.348;2023-04-06T08:03:02;3.70;;;1.00;;
72493;SDS011;60520;49.182;-0.348;2023-04-06T08:05:30;4.43;;;1.00;;
72493;SDS011;60520;49.182;-0.348;2023-04-06T08:07:57;4.07;;;1.00;;
72493;SDS011;60520;49.182;-0.348;2023-04-06T08:10:24;2.25;;;0.80;;
72493;SDS011;60520;49.182;-0.348;2023-04-06T08:12:52;4.90;;;1.05;;
72493;SDS011;60520;49.182;-0.348;2023-04-06T08:15:20;3.17;;;0.88;;
72493;SDS011;60520;49.182;-0.348;2023-04-06T08:17:48;3.88;;;1.10;;
72493;SDS011;60520;49.182;-0.348;2023-04-06T08:20:15;7.65;;;0.90;;
72493;SDS011;60520;49.182;-0.348;2023-04-06T08:22:42;2.65;;;0.90;;
72493;SDS011;60520;49.182;-0.348;2023-04-06T08:25:09;3.70;;;0.90;;
72493;SDS011;60520;49.182;-0.348;2023-04-06T08:27:37;2.25;;;0.65;;
72493;SDS011;60520;49.182;-0.348;2023-04-06T08:30:04;1.38;;;0.60;;
72493;SDS011;60520;49.182;-0.348;2023-04-06T08:32:33;2.13;;;0.88;;
72493;SDS011;60520;49.182;-0.348;2023-04-06T08:35:00;3.15;;;1.02;;
72493;SDS011;60520;49.182;-0.348;2023-04-06T08:37:28;1.05;;;0.90;;
72493;SDS011;60520;49.182;-0.348;2023-04-06T08:39:55;1.27;;;1.00;;
72493;SDS011;60520;49.182;-0.348;2023-04-06T08:42:22;3.03;;;1.08;;
72493;SDS011;60520;49.182;-0.348;2023-04-06T08:44:51;4.95;;;1.10;;
72493;SDS011;60520;49.182;-0.348;2023-04-06T08:47:19;34.60;;;1.92;;
72493;SDS011;60520;49.182;-0.348;2023-04-06T08:49:48;24.10;;;1.48;;
72493;SDS011;60520;49.182;-0.348;2023-04-06T08:52:16;6.75;;;1.38;;
72493;SDS011;60520;49.182;-0.348;2023-04-06T08:54:44;22.75;;;1.45;;
72493;SDS011;60520;49.182;-0.348;2023-04-06T08:57:11;6.75;;;1.45;;
72493;SDS011;60520;49.182;-0.348;2023-04-06T08:59:39;9.32;;;1.48;;
72493;SDS011;60520;49.182;-0.348;2023-04-06T09:02:06;5.53;;;1.70;;
72493;SDS011;60520;49.182;-0.348;2023-04-06T09:04:40;5.80;;;1.55;;
72493;SDS011;60520;49.182;-0.348;2023-04-06T09:07:09;1.90;;;1.10;;
72493;SDS011;60520;49.182;-0.348;2023-04-06T09:09:36;4.75;;;1.02;;
72493;SDS011;60520;49.182;-0.348;2023-04-06T09:12:08;1.98;;;1.00;;
72493;SDS011;60520;49.182;-0.348;2023-04-06T09:14:37;2.28;;;1.00;;
72493;SDS011;60520;49.182;-0.348;2023-04-06T09:17:05;5.60;;;1.10;;
72493;SDS011;60520;49.182;-0.348;2023-04-06T09:19:33;1.88;;;0.80;;
72493;SDS011;60520;49.182;-0.348;2023-04-06T09:22:03;2.92;;;0.90;;
72493;SDS011;60520;49.182;-0.348;2023-04-06T09:24:43;1.13;;;0.93;;
72493;SDS011;60520;49.182;-0.348;2023-04-06T09:27:11;1.88;;;0.82;;
72493;SDS011;60520;49.182;-0.348;2023-04-06T09:29:38;1.63;;;0.70;;
72493;SDS011;60520;49.182;-0.348;2023-04-06T09:32:06;3.35;;;0.70;;
72493;SDS011;60520;49.182;-0.348;2023-04-06T09:34:36;1.92;;;0.60;;
72493;SDS011;60520;49.182;-0.348;2023-04-06T09:37:11;2.70;;;0.77;;
72493;SDS011;60520;49.182;-0.348;2023-04-06T09:39:39;1.08;;;0.65;;
72493;SDS011;60520;49.182;-0.348;2023-04-06T09:42:07;3.42;;;0.80;;
72493;SDS011;60520;49.182;-0.348;2023-04-06T09:44:35;2.28;;;0.65;;
72493;SDS011;60520;49.182;-0.348;2023-04-06T09:47:03;2.95;;;0.88;;
72493;SDS011;60520;49.182;-0.348;2023-04-06T09:49:32;3.20;;;0.75;;
72493;SDS011;60520;49.182;-0.348;2023-04-06T09:52:01;3.63;;;0.80;;
72493;SDS011;60520;49.182;-0.348;2023-04-06T09:54:30;1.58;;;0.77;;
72493;SDS011;60520;49.182;-0.348;2023-04-06T09:57:00;3.15;;;0.70;;
72493;SDS011;60520;49.182;-0.348;2023-04-06T09:59:31;4.68;;;0.85;;
72493;SDS011;60520;49.182;-0.348;2023-04-06T10:02:00;2.60;;;0.70;;
72493;SDS011;60520;49.182;-0.348;2023-04-06T10:04:30;1.63;;;0.60;;
72493;SDS011;60520;49.182;-0.348;2023-04-06T10:06:59;1.10;;;0.63;;
72493;SDS011;60520;49.182;-0.348;2023-04-06T10:09:28;2.05;;;0.80;;
72493;SDS011;60520;49.182;-0.348;2023-04-06T10:12:01;2.45;;;0.90;;
72493;SDS011;60520;49.182;-0.348;2023-04-06T10:14:30;2.00;;;0.63;;
72493;SDS011;60520;49.182;-0.348;2023-04-06T10:16:58;2.65;;;0.70;;
72493;SDS011;60520;49.182;-0.348;2023-04-06T10:19:26;1.75;;;0.57;;
72493;SDS011;60520;49.182;-0.348;2023-04-06T10:21:55;0.82;;;0.60;;
72493;SDS011;60520;49.182;-0.348;2023-04-06T10:24:23;1.35;;;0.63;;
72493;SDS011;60520;49.182;-0.348;2023-04-06T10:27:00;1.30;;;0.70;;
72493;SDS011;60520;49.182;-0.348;2023-04-06T10:29:28;2.10;;;0.70;;
72493;SDS011;60520;49.182;-0.348;2023-04-06T10:31:56;1.40;;;0.70;;
72493;SDS011;60520;49.182;-0.348;2023-04-06T10:34:23;2.03;;;0.50;;
72493;SDS011;60520;49.182;-0.348;2023-04-06T10:37:10;2.35;;;1.00;;
72493;SDS011;60520;49.182;-0.348;2023-04-06T10:39:45;2.95;;;1.02;;
72493;SDS011;60520;49.182;-0.348;2023-04-06T10:42:12;3.65;;;1.02;;
72493;SDS011;60520;49.182;-0.348;2023-04-06T10:44:42;2.10;;;0.80;;
72493;SDS011;60520;49.182;-0.348;2023-04-06T10:47:16;1.52;;;0.88;;
72493;SDS011;60520;49.182;-0.348;2023-04-06T10:49:44;1.20;;;0.70;;
72493;SDS011;60520;49.182;-0.348;2023-04-06T10:52:11;2.17;;;0.80;;
72493;SDS011;60520;49.182;-0.348;2023-04-06T10:54:40;10.73;;;1.10;;
72493;SDS011;60520;49.182;-0.348;2023-04-06T10:57:08;2.70;;;0.70;;
72493;SDS011;60520;49.182;-0.348;2023-04-06T10:59:35;5.72;;;0.90;;
72493;SDS011;60520;49.182;-0.348;2023-04-06T11:02:02;3.97;;;0.77;;
72493;SDS011;60520;49.182;-0.348;2023-04-06T11:04:30;4.75;;;0.90;;
72493;SDS011;60520;49.182;-0.348;2023-04-06T11:06:58;2.90;;;0.68;;
72493;SDS011;60520;49.182;-0.348;2023-04-06T11:09:25;1.20;;;0.70;;
72493;SDS011;60520;49.182;-0.348;2023-04-06T11:11:52;2.85;;;0.50;;
72493;SDS011;60520;49.182;-0.348;2023-04-06T11:14:20;0.75;;;0.50;;
72493;SDS011;60520;49.182;-0.348;2023-04-06T11:16:47;1.10;;;0.57;;
72493;SDS011;60520;49.182;-0.348;2023-04-06T11:19:15;1.38;;;0.63;;
72493;SDS011;60520;49.182;-0.348;2023-04-06T11:21:44;0.85;;;0.60;;
72493;SDS011;60520;49.182;-0.348;2023-04-06T11:24:13;1.67;;;0.70;;
72493;SDS011;60520;49.182;-0.348;2023-04-06T11:26:41;3.10;;;0.60;;
72493;SDS011;60520;49.182;-0.348;2023-04-06T11:29:10;1.63;;;0.50;;
72493;SDS011;60520;49.182;-0.348;2023-04-06T11:31:37;1.42;;;0.70;;
72493;SDS011;60520;49.182;-0.348;2023-04-06T11:34:08;2.85;;;1.60;;
72493;SDS011;60520;49.182;-0.348;2023-04-06T11:36:36;3.17;;;2.03;;
72493;SDS011;60520;49.182;-0.348;2023-04-06T11:39:04;4.05;;;1.27;;
72493;SDS011;60520;49.182;-0.348;2023-04-06T11:41:32;2.33;;;1.10;;
72493;SDS011;60520;49.182;-0.348;2023-04-06T11:44:00;2.03;;;1.00;;
72493;SDS011;60520;49.182;-0.348;2023-04-06T11:46:27;0.88;;;0.60;;
72493;SDS011;60520;49.182;-0.348;2023-04-06T11:48:57;1.60;;;0.85;;
72493;SDS011;60520;49.182;-0.348;2023-04-06T11:51:24;2.80;;;0.70;;
72493;SDS011;60520;49.182;-0.348;2023-04-06T11:53:52;1.48;;;0.70;;
72493;SDS011;60520;49.182;-0.348;2023-04-06T11:56:28;1.58;;;0.93;;
72493;SDS011;60520;49.182;-0.348;2023-04-06T11:58:55;1.90;;;0.80;;
72493;SDS011;60520;49.182;-0.348;2023-04-06T12:01:23;1.77;;;0.80;;
72493;SDS011;60520;49.182;-0.348;2023-04-06T12:03:51;1.50;;;0.80;;
72493;SDS011;60520;49.182;-0.348;2023-04-06T12:06:18;3.42;;;1.00;;
72493;SDS011;60520;49.182;-0.348;2023-04-06T12:08:47;4.35;;;0.95;;
72493;SDS011;60520;49.182;-0.348;2023-04-06T12:11:14;1.77;;;0.80;;
72493;SDS011;60520;49.182;-0.348;2023-04-06T12:13:44;2.90;;;1.02;;
72493;SDS011;60520;49.182;-0.348;2023-04-06T12:16:12;1.25;;;0.80;;
72493;SDS011;60520;49.182;-0.348;2023-04-06T12:18:41;3.38;;;0.90;;
72493;SDS011;60520;49.182;-0.348;2023-04-06T12:21:10;1.40;;;0.80;;
72493;SDS011;60520;49.182;-0.348;2023-04-06T12:23:41;3.72;;;1.20;;
72493;SDS011;60520;49.182;-0.348;2023-04-06T12:26:08;1.30;;;0.73;;
72493;SDS011;60520;49.182;-0.348;2023-04-06T12:28:36;2.08;;;0.70;;
72493;SDS011;60520;49.182;-0.348;2023-04-06T12:31:05;2.17;;;1.00;;
72493;SDS011;60520;49.182;-0.348;2023-04-06T12:33:32;2.60;;;1.00;;
72493;SDS011;60520;49.182;-0.348;2023-04-06T12:35:59;3.70;;;0.80;;
72493;SDS011;60520;49.182;-0.348;2023-04-06T12:38:27;1.55;;;0.75;;
72493;SDS011;60520;49.182;-0.348;2023-04-06T12:40:54;2.47;;;0.88;;
72493;SDS011;60520;49.182;-0.348;2023-04-06T12:43:21;4.63;;;0.95;;
72493;SDS011;60520;49.182;-0.348;2023-04-06T12:45:48;4.00;;;1.00;;
72493;SDS011;60520;49.182;-0.348;2023-04-06T12:48:16;2.95;;;0.93;;
72493;SDS011;60520;49.182;-0.348;2023-04-06T12:50:44;3.28;;;1.13;;
72493;SDS011;60520;49.182;-0.348;2023-04-06T12:53:12;2.60;;;1.02;;
72493;SDS011;60520;49.182;-0.348;2023-04-06T12:55:40;3.72;;;0.90;;
72493;SDS011;60520;49.182;-0.348;2023-04-06T12:58:07;1.50;;;0.80;;
72493;SDS011;60520;49.182;-0.348;2023-04-06T13:00:34;3.83;;;0.77;;
72493;SDS011;60520;49.182;-0.348;2023-04-06T13:03:02;1.80;;;1.10;;
72493;SDS011;60520;49.182;-0.348;2023-04-06T13:05:30;3.10;;;0.90;;
72493;SDS011;60520;49.182;-0.348;2023-04-06T13:07:58;3.78;;;1.50;;
72493;SDS011;60520;49.182;-0.348;2023-04-06T13:10:26;3.80;;;1.27;;
72493;SDS011;60520;49.182;-0.348;2023-04-06T13:12:53;4.65;;;1.30;;
72493;SDS011;60520;49.182;-0.348;2023-04-06T13:15:20;7.00;;;1.67;;
72493;SDS011;60520;49.182;-0.348;2023-04-06T13:17:47;2.67;;;1.05;;
72493;SDS011;60520;49.182;-0.348;2023-04-06T13:20:15;2.42;;;1.23;;
72493;SDS011;60520;49.182;-0.348;2023-04-06T13:22:43;2.42;;;1.00;;
72493;SDS011;60520;49.182;-0.348;2023-04-06T13:25:11;2.15;;;1.23;;
72493;SDS011;60520;49.182;-0.348;2023-04-06T13:27:38;1.92;;;1.10;;
72493;SDS011;60520;49.182;-0.348;2023-04-06T13:30:05;2.65;;;1.20;;
72493;SDS011;60520;49.182;-0.348;2023-04-06T13:32:33;2.55;;;1.20;;
72493;SDS011;60520;49.182;-0.348;2023-04-06T13:35:00;2.00;;;1.30;;
72493;SDS011;60520;49.182;-0.348;2023-04-06T13:37:28;1.63;;;1.00;;
72493;SDS011;60520;49.182;-0.348;2023-04-06T13:39:57;2.30;;;1.30;;
72493;SDS011;60520;49.182;-0.348;2023-04-06T13:42:24;1.63;;;1.00;;
72493;SDS011;60520;49.182;-0.348;2023-04-06T13:44:51;3.78;;;1.30;;
72493;SDS011;60520;49.182;-0.348;2023-04-06T13:47:18;7.90;;;1.23;;
72493;SDS011;60520;49.182;-0.348;2023-04-06T13:49:46;5.65;;;1.23;;
72493;SDS011;60520;49.182;-0.348;2023-04-06T13:52:13;8.60;;;1.23;;
72493;SDS011;60520;49.182;-0.348;2023-04-06T13:54:40;4.30;;;1.20;;
72493;SDS011;60520;49.182;-0.348;2023-04-06T13:57:09;2.03;;;1.05;;
72493;SDS011;60520;49.182;-0.348;2023-04-06T13:59:37;4.35;;;1.23;;
72493;SDS011;60520;49.182;-0.348;2023-04-06T14:02:05;1.95;;;0.80;;
72493;SDS011;60520;49.182;-0.348;2023-04-06T14:04:32;4.30;;;1.85;;
72493;SDS011;60520;49.182;-0.348;2023-04-06T14:07:00;3.13;;;1.13;;
72493;SDS011;60520;49.182;-0.348;2023-04-06T14:09:27;3.92;;;1.23;;
72493;SDS011;60520;49.182;-0.348;2023-04-06T14:11:55;3.72;;;0.98;;
72493;SDS011;60520;49.182;-0.348;2023-04-06T14:14:26;6.43;;;0.80;;
72493;SDS011;60520;49.182;-0.348;2023-04-06T14:16:54;2.13;;;1.00;;
72493;SDS011;60520;49.182;-0.348;2023-04-06T14:19:25;2.25;;;0.90;;
72493;SDS011;60520;49.182;-0.348;2023-04-06T14:21:52;3.38;;;0.90;;
72493;SDS011;60520;49.182;-0.348;2023-04-06T14:24:19;3.80;;;0.95;;
72493;SDS011;60520;49.182;-0.348;2023-04-06T14:26:46;7.70;;;0.85;;
72493;SDS011;60520;49.182;-0.348;2023-04-06T14:29:14;5.65;;;1.20;;
72493;SDS011;60520;49.182;-0.348;2023-04-06T14:31:44;2.75;;;1.00;;
72493;SDS011;60520;49.182;-0.348;2023-04-06T14:34:11;1.63;;;0.80;;
72493;SDS011;60520;49.182;-0.348;2023-04-06T14:36:39;27.38;;;2.42;;